sensor_id;sensor_type;location;lat;lon;timestamp;temperature;humidity
14014;DHT22;49110;52.584;13.408;2023-04-03T00:00:42;2.40;98.20
14014;DHT22;49110;52.584;13.408;2023-04-03T00:01:43;2.40;98.30
14014;DHT22;49110;52.584;13.408;2023-04-03T00:02:43;2.40;98.30
14014;DHT22;49110;52.584;13.408;2023-04-03T00:03:44;2.40;98.20
14014;DHT22;49110;52.584;13.408;2023-04-03T00:04:44;2.40;98.30
14014;DHT22;49110;52.584;13.408;2023-04-03T00:05:45;2.40;98.10
14014;DHT22;49110;52.584;13.408;2023-04-03T00:06:46;2.40;98.20
14014;DHT22;49110;52.584;13.408;2023-04-03T00:07:47;2.40;98.20
14014;DHT22;49110;52.584;13.408;2023-04-03T00:08:47;2.40;98.20
14014;DHT22;49110;52.584;13.408;2023-04-03T00:09:48;2.30;98.40
14014;DHT22;49110;52.584;13.408;2023-04-03T00:10:48;2.40;98.20
14014;DHT22;49110;52.584;13.408;2023-04-03T00:11:49;2.40;98.10
14014;DHT22;49110;52.584;13.408;2023-04-03T00:12:50;2.30;98.20
14014;DHT22;49110;52.584;13.408;2023-04-03T00:13:51;2.30;98.30
14014;DHT22;49110;52.584;13.408;2023-04-03T00:14:51;2.20;98.30
14014;DHT22;49110;52.584;13.408;2023-04-03T00:15:52;2.20;98.40
14014;DHT22;49110;52.584;13.408;2023-04-03T00:16:53;2.20;98.40
14014;DHT22;49110;52.584;13.408;2023-04-03T00:17:53;2.20;98.50
14014;DHT22;49110;52.584;13.408;2023-04-03T00:18:54;2.20;98.50
14014;DHT22;49110;52.584;13.408;2023-04-03T00:19:54;2.20;98.80
14014;DHT22;49110;52.584;13.408;2023-04-03T00:20:55;2.20;98.50
14014;DHT22;49110;52.584;13.408;2023-04-03T00:21:55;2.10;98.50
14014;DHT22;49110;52.584;13.408;2023-04-03T00:22:56;2.20;98.60
14014;DHT22;49110;52.584;13.408;2023-04-03T00:23:57;2.20;98.60
14014;DHT22;49110;52.584;13.408;2023-04-03T00:24:58;2.20;98.60
14014;DHT22;49110;52.584;13.408;2023-04-03T00:25:58;2.10;98.50
14014;DHT22;49110;52.584;13.408;2023-04-03T00:26:59;2.10;98.50
14014;DHT22;49110;52.584;13.408;2023-04-03T00:27:59;2.10;98.60
14014;DHT22;49110;52.584;13.408;2023-04-03T00:29:00;2.10;98.60
14014;DHT22;49110;52.584;13.408;2023-04-03T00:30:00;2.10;98.60
14014;DHT22;49110;52.584;13.408;2023-04-03T00:31:01;2.10;98.70
14014;DHT22;49110;52.584;13.408;2023-04-03T00:32:01;2.10;98.70
14014;DHT22;49110;52.584;13.408;2023-04-03T00:33:02;2.10;98.70
14014;DHT22;49110;52.584;13.408;2023-04-03T00:34:02;2.10;98.80
14014;DHT22;49110;52.584;13.408;2023-04-03T00:35:03;2.10;98.80
14014;DHT22;49110;52.584;13.408;2023-04-03T00:36:10;2.10;98.80
14014;DHT22;49110;52.584;13.408;2023-04-03T00:37:11;2.00;98.80
14014;DHT22;49110;52.584;13.408;2023-04-03T00:38:11;2.00;98.80
14014;DHT22;49110;52.584;13.408;2023-04-03T00:39:12;2.00;98.80
14014;DHT22;49110;52.584;13.408;2023-04-03T00:40:14;2.00;98.90
14014;DHT22;49110;52.584;13.408;2023-04-03T00:41:15;2.00;98.90
14014;DHT22;49110;52.584;13.408;2023-04-03T00:42:15;2.00;98.90
14014;DHT22;49110;52.584;13.408;2023-04-03T00:43:22;2.00;98.90
14014;DHT22;49110;52.584;13.408;2023-04-03T00:45:46;2.00;98.90
14014;DHT22;49110;52.584;13.408;2023-04-03T00:46:47;2.00;99.00
14014;DHT22;49110;52.584;13.408;2023-04-03T00:47:47;1.90;99.00
14014;DHT22;49110;52.584;13.408;2023-04-03T00:48:48;1.90;99.00
14014;DHT22;49110;52.584;13.408;2023-04-03T00:49:50;1.90;99.10
14014;DHT22;49110;52.584;13.408;2023-04-03T00:50:51;1.90;99.10
14014;DHT22;49110;52.584;13.408;2023-04-03T00:51:52;1.90;99.10
14014;DHT22;49110;52.584;13.408;2023-04-03T00:52:53;1.90;99.10
14014;DHT22;49110;52.584;13.408;2023-04-03T00:54:00;1.90;99.20
14014;DHT22;49110;52.584;13.408;2023-04-03T00:55:06;1.90;99.10
14014;DHT22;49110;52.584;13.408;2023-04-03T00:56:11;1.90;99.20
14014;DHT22;49110;52.584;13.408;2023-04-03T00:57:13;1.90;99.10
14014;DHT22;49110;52.584;13.408;2023-04-03T00:58:17;1.90;99.00
14014;DHT22;49110;52.584;13.408;2023-04-03T00:59:22;1.90;99.20
14014;DHT22;49110;52.584;13.408;2023-04-03T01:00:26;1.80;99.30
14014;DHT22;49110;52.584;13.408;2023-04-03T01:01:28;1.80;99.30
14014;DHT22;49110;52.584;13.408;2023-04-03T01:02:29;1.80;99.40
14014;DHT22;49110;52.584;13.408;2023-04-03T01:03:29;1.80;99.40
14014;DHT22;49110;52.584;13.408;2023-04-03T01:04:40;1.80;99.40
14014;DHT22;49110;52.584;13.408;2023-04-03T01:05:41;1.80;99.40
14014;DHT22;49110;52.584;13.408;2023-04-03T01:06:41;1.80;99.40
14014;DHT22;49110;52.584;13.408;2023-04-03T01:07:42;1.80;99.50
14014;DHT22;49110;52.584;13.408;2023-04-03T01:08:43;1.80;99.50
14014;DHT22;49110;52.584;13.408;2023-04-03T01:09:45;1.90;99.50
14014;DHT22;49110;52.584;13.408;2023-04-03T01:10:47;1.80;99.40
14014;DHT22;49110;52.584;13.408;2023-04-03T01:11:47;1.80;99.40
14014;DHT22;49110;52.584;13.408;2023-04-03T01:12:49;1.90;99.40
14014;DHT22;49110;52.584;13.408;2023-04-03T01:13:50;1.80;99.40
14014;DHT22;49110;52.584;13.408;2023-04-03T01:14:59;1.80;99.30
14014;DHT22;49110;52.584;13.408;2023-04-03T01:16:02;1.80;99.60
14014;DHT22;49110;52.584;13.408;2023-04-03T01:17:03;1.80;99.60
14014;DHT22;49110;52.584;13.408;2023-04-03T01:18:03;1.90;99.60
14014;DHT22;49110;52.584;13.408;2023-04-03T01:19:08;1.90;99.50
14014;DHT22;49110;52.584;13.408;2023-04-03T01:21:54;1.90;99.50
14014;DHT22;49110;52.584;13.408;2023-04-03T01:24:36;2.00;99.50
14014;DHT22;49110;52.584;13.408;2023-04-03T01:26:43;2.10;99.20
14014;DHT22;49110;52.584;13.408;2023-04-03T01:27:44;2.00;99.10
14014;DHT22;49110;52.584;13.408;2023-04-03T01:28:45;1.90;99.10
14014;DHT22;49110;52.584;13.408;2023-04-03T01:29:46;1.90;99.20
14014;DHT22;49110;52.584;13.408;2023-04-03T01:31:55;2.00;99.30
14014;DHT22;49110;52.584;13.408;2023-04-03T01:32:56;2.00;99.20
14014;DHT22;49110;52.584;13.408;2023-04-03T01:33:57;2.00;99.10
14014;DHT22;49110;52.584;13.408;2023-04-03T01:34:58;2.00;99.10
14014;DHT22;49110;52.584;13.408;2023-04-03T01:35:58;2.00;99.10
14014;DHT22;49110;52.584;13.408;2023-04-03T01:36:59;2.00;99.10
14014;DHT22;49110;52.584;13.408;2023-04-03T01:37:59;2.00;99.10
14014;DHT22;49110;52.584;13.408;2023-04-03T01:39:00;2.00;99.10
14014;DHT22;49110;52.584;13.408;2023-04-03T01:40:01;1.90;99.10
14014;DHT22;49110;52.584;13.408;2023-04-03T01:41:03;1.90;99.20
14014;DHT22;49110;52.584;13.408;2023-04-03T01:42:03;1.90;99.30
14014;DHT22;49110;52.584;13.408;2023-04-03T01:43:04;1.90;99.20
14014;DHT22;49110;52.584;13.408;2023-04-03T01:44:05;2.00;99.20
14014;DHT22;49110;52.584;13.408;2023-04-03T01:45:06;1.90;99.20
14014;DHT22;49110;52.584;13.408;2023-04-03T01:46:07;1.90;99.30
14014;DHT22;49110;52.584;13.408;2023-04-03T01:47:08;1.90;99.40
14014;DHT22;49110;52.584;13.408;2023-04-03T01:48:08;1.80;99.40
14014;DHT22;49110;52.584;13.408;2023-04-03T01:49:09;1.80;99.40
14014;DHT22;49110;52.584;13.408;2023-04-03T01:50:10;1.80;99.50
14014;DHT22;49110;52.584;13.408;2023-04-03T01:51:11;1.80;99.50
14014;DHT22;49110;52.584;13.408;2023-04-03T01:52:11;1.80;99.70
14014;DHT22;49110;52.584;13.408;2023-04-03T01:53:12;1.70;99.60
14014;DHT22;49110;52.584;13.408;2023-04-03T01:54:13;1.70;99.70
14014;DHT22;49110;52.584;13.408;2023-04-03T01:55:14;1.70;99.70
14014;DHT22;49110;52.584;13.408;2023-04-03T01:56:15;1.70;99.70
14014;DHT22;49110;52.584;13.408;2023-04-03T01:57:16;1.70;99.80
14014;DHT22;49110;52.584;13.408;2023-04-03T01:58:16;1.70;99.70
14014;DHT22;49110;52.584;13.408;2023-04-03T01:59:17;1.70;99.70
14014;DHT22;49110;52.584;13.408;2023-04-03T02:00:19;1.70;99.70
14014;DHT22;49110;52.584;13.408;2023-04-03T02:01:20;1.70;99.70
14014;DHT22;49110;52.584;13.408;2023-04-03T02:02:21;1.80;99.80
14014;DHT22;49110;52.584;13.408;2023-04-03T02:03:21;1.90;99.70
14014;DHT22;49110;52.584;13.408;2023-04-03T02:04:22;1.80;99.50
14014;DHT22;49110;52.584;13.408;2023-04-03T02:05:23;1.80;99.50
14014;DHT22;49110;52.584;13.408;2023-04-03T02:06:23;1.80;99.50
14014;DHT22;49110;52.584;13.408;2023-04-03T02:07:24;1.90;99.50
14014;DHT22;49110;52.584;13.408;2023-04-03T02:08:24;1.80;99.40
14014;DHT22;49110;52.584;13.408;2023-04-03T02:09:25;1.90;99.50
14014;DHT22;49110;52.584;13.408;2023-04-03T02:10:26;1.90;99.50
14014;DHT22;49110;52.584;13.408;2023-04-03T02:11:27;1.90;99.50
14014;DHT22;49110;52.584;13.408;2023-04-03T02:12:28;2.00;99.40
14014;DHT22;49110;52.584;13.408;2023-04-03T02:13:28;2.00;99.30
14014;DHT22;49110;52.584;13.408;2023-04-03T02:14:29;2.00;99.10
14014;DHT22;49110;52.584;13.408;2023-04-03T02:15:29;2.00;99.20
14014;DHT22;49110;52.584;13.408;2023-04-03T02:16:30;2.00;99.10
14014;DHT22;49110;52.584;13.408;2023-04-03T02:17:31;2.00;99.10
14014;DHT22;49110;52.584;13.408;2023-04-03T02:18:31;2.00;99.10
14014;DHT22;49110;52.584;13.408;2023-04-03T02:19:32;2.00;99.10
14014;DHT22;49110;52.584;13.408;2023-04-03T02:20:32;1.90;99.20
14014;DHT22;49110;52.584;13.408;2023-04-03T02:21:33;1.80;99.30
14014;DHT22;49110;52.584;13.408;2023-04-03T02:22:34;1.80;99.50
14014;DHT22;49110;52.584;13.408;2023-04-03T02:23:34;1.70;99.60
14014;DHT22;49110;52.584;13.408;2023-04-03T02:24:37;1.80;99.70
14014;DHT22;49110;52.584;13.408;2023-04-03T02:25:39;1.70;99.70
14014;DHT22;49110;52.584;13.408;2023-04-03T02:26:41;1.70;99.80
14014;DHT22;49110;52.584;13.408;2023-04-03T02:27:41;1.70;99.90
14014;DHT22;49110;52.584;13.408;2023-04-03T02:28:42;1.70;99.90
14014;DHT22;49110;52.584;13.408;2023-04-03T02:29:43;1.70;99.80
14014;DHT22;49110;52.584;13.408;2023-04-03T02:30:43;1.70;99.90
14014;DHT22;49110;52.584;13.408;2023-04-03T02:31:44;1.70;99.90
14014;DHT22;49110;52.584;13.408;2023-04-03T02:32:45;1.80;99.90
14014;DHT22;49110;52.584;13.408;2023-04-03T02:33:45;1.80;99.80
14014;DHT22;49110;52.584;13.408;2023-04-03T02:34:46;1.80;99.70
14014;DHT22;49110;52.584;13.408;2023-04-03T02:35:46;1.80;99.70
14014;DHT22;49110;52.584;13.408;2023-04-03T02:36:53;1.70;99.70
14014;DHT22;49110;52.584;13.408;2023-04-03T02:37:53;1.70;99.80
14014;DHT22;49110;52.584;13.408;2023-04-03T02:38:54;1.70;99.80
14014;DHT22;49110;52.584;13.408;2023-04-03T02:39:54;1.80;99.80
14014;DHT22;49110;52.584;13.408;2023-04-03T02:41:03;1.80;99.90
14014;DHT22;49110;52.584;13.408;2023-04-03T02:42:04;1.80;99.70
14014;DHT22;49110;52.584;13.408;2023-04-03T02:43:04;1.80;99.70
14014;DHT22;49110;52.584;13.408;2023-04-03T02:44:06;1.70;99.70
14014;DHT22;49110;52.584;13.408;2023-04-03T02:45:07;1.60;99.90
14014;DHT22;49110;52.584;13.408;2023-04-03T02:46:08;1.50;99.90
14014;DHT22;49110;52.584;13.408;2023-04-03T02:47:08;1.60;99.90
14014;DHT22;49110;52.584;13.408;2023-04-03T02:48:09;1.60;99.90
14014;DHT22;49110;52.584;13.408;2023-04-03T02:49:09;1.60;99.90
14014;DHT22;49110;52.584;13.408;2023-04-03T02:50:10;1.60;99.90
14014;DHT22;49110;52.584;13.408;2023-04-03T02:51:10;1.70;99.90
14014;DHT22;49110;52.584;13.408;2023-04-03T02:52:12;1.70;99.90
14014;DHT22;49110;52.584;13.408;2023-04-03T02:53:13;1.70;99.90
14014;DHT22;49110;52.584;13.408;2023-04-03T02:54:14;1.70;99.90
14014;DHT22;49110;52.584;13.408;2023-04-03T02:55:14;1.70;99.80
14014;DHT22;49110;52.584;13.408;2023-04-03T02:56:17;1.70;99.90
14014;DHT22;49110;52.584;13.408;2023-04-03T02:57:18;1.70;99.90
14014;DHT22;49110;52.584;13.408;2023-04-03T02:58:19;1.60;99.80
14014;DHT22;49110;52.584;13.408;2023-04-03T02:59:20;1.70;99.90
14014;DHT22;49110;52.584;13.408;2023-04-03T03:00:21;1.60;99.90
14014;DHT22;49110;52.584;13.408;2023-04-03T03:01:22;1.60;99.90
14014;DHT22;49110;52.584;13.408;2023-04-03T03:02:22;1.70;99.90
14014;DHT22;49110;52.584;13.408;2023-04-03T03:03:23;1.70;99.90
14014;DHT22;49110;52.584;13.408;2023-04-03T03:04:23;1.70;99.90
14014;DHT22;49110;52.584;13.408;2023-04-03T03:05:24;1.80;99.90
14014;DHT22;49110;52.584;13.408;2023-04-03T03:06:24;1.80;99.80
14014;DHT22;49110;52.584;13.408;2023-04-03T03:07:25;1.80;99.80
14014;DHT22;49110;52.584;13.408;2023-04-03T03:08:26;1.80;99.80
14014;DHT22;49110;52.584;13.408;2023-04-03T03:09:26;1.70;99.90
14014;DHT22;49110;52.584;13.408;2023-04-03T03:10:27;1.70;99.90
14014;DHT22;49110;52.584;13.408;2023-04-03T03:11:27;1.70;99.90
14014;DHT22;49110;52.584;13.408;2023-04-03T03:12:28;1.70;99.80
14014;DHT22;49110;52.584;13.408;2023-04-03T03:13:29;1.70;99.90
14014;DHT22;49110;52.584;13.408;2023-04-03T03:14:29;1.70;99.90
14014;DHT22;49110;52.584;13.408;2023-04-03T03:15:30;1.60;99.90
14014;DHT22;49110;52.584;13.408;2023-04-03T03:16:31;1.60;99.90
14014;DHT22;49110;52.584;13.408;2023-04-03T03:17:31;1.60;99.90
14014;DHT22;49110;52.584;13.408;2023-04-03T03:18:32;1.60;99.90
14014;DHT22;49110;52.584;13.408;2023-04-03T03:19:32;1.50;99.90
14014;DHT22;49110;52.584;13.408;2023-04-03T03:20:33;1.60;99.90
14014;DHT22;49110;52.584;13.408;2023-04-03T03:21:33;1.50;99.90
14014;DHT22;49110;52.584;13.408;2023-04-03T03:22:34;1.50;99.90
14014;DHT22;49110;52.584;13.408;2023-04-03T03:23:34;1.50;99.90
14014;DHT22;49110;52.584;13.408;2023-04-03T03:24:35;1.50;99.90
14014;DHT22;49110;52.584;13.408;2023-04-03T03:25:39;1.50;99.90
14014;DHT22;49110;52.584;13.408;2023-04-03T03:26:40;1.50;99.90
14014;DHT22;49110;52.584;13.408;2023-04-03T03:27:41;1.50;99.90
14014;DHT22;49110;52.584;13.408;2023-04-03T03:28:41;1.50;99.90
14014;DHT22;49110;52.584;13.408;2023-04-03T03:29:42;1.50;99.90
14014;DHT22;49110;52.584;13.408;2023-04-03T03:30:43;1.50;99.90
14014;DHT22;49110;52.584;13.408;2023-04-03T03:31:43;1.50;99.90
14014;DHT22;49110;52.584;13.408;2023-04-03T03:32:44;1.60;99.90
14014;DHT22;49110;52.584;13.408;2023-04-03T03:33:44;1.60;99.90
14014;DHT22;49110;52.584;13.408;2023-04-03T03:34:45;1.60;99.90
14014;DHT22;49110;52.584;13.408;2023-04-03T03:35:45;1.50;99.90
14014;DHT22;49110;52.584;13.408;2023-04-03T03:36:46;1.50;99.90
14014;DHT22;49110;52.584;13.408;2023-04-03T03:37:46;1.50;99.90
14014;DHT22;49110;52.584;13.408;2023-04-03T03:38:47;1.50;99.90
14014;DHT22;49110;52.584;13.408;2023-04-03T03:39:47;1.50;99.90
14014;DHT22;49110;52.584;13.408;2023-04-03T03:40:49;1.60;99.90
14014;DHT22;49110;52.584;13.408;2023-04-03T03:41:50;1.60;99.90
14014;DHT22;49110;52.584;13.408;2023-04-03T03:42:51;1.70;99.90
14014;DHT22;49110;52.584;13.408;2023-04-03T03:43:51;1.80;99.90
14014;DHT22;49110;52.584;13.408;2023-04-03T03:44:52;1.80;99.90
14014;DHT22;49110;52.584;13.408;2023-04-03T03:45:52;1.90;99.90
14014;DHT22;49110;52.584;13.408;2023-04-03T03:46:53;1.90;99.80
14014;DHT22;49110;52.584;13.408;2023-04-03T03:47:53;1.90;99.70
14014;DHT22;49110;52.584;13.408;2023-04-03T03:48:54;1.90;99.80
14014;DHT22;49110;52.584;13.408;2023-04-03T03:49:54;1.90;99.70
14014;DHT22;49110;52.584;13.408;2023-04-03T03:50:55;1.90;99.70
14014;DHT22;49110;52.584;13.408;2023-04-03T03:51:55;2.00;99.80
14014;DHT22;49110;52.584;13.408;2023-04-03T03:52:56;2.00;99.50
14014;DHT22;49110;52.584;13.408;2023-04-03T03:53:56;2.00;99.50
14014;DHT22;49110;52.584;13.408;2023-04-03T03:54:57;2.10;99.90
14014;DHT22;49110;52.584;13.408;2023-04-03T03:55:57;2.00;99.50
14014;DHT22;49110;52.584;13.408;2023-04-03T03:56:58;2.00;99.40
14014;DHT22;49110;52.584;13.408;2023-04-03T03:57:58;1.90;99.40
14014;DHT22;49110;52.584;13.408;2023-04-03T03:59:01;1.90;99.50
14014;DHT22;49110;52.584;13.408;2023-04-03T04:00:02;1.90;99.70
14014;DHT22;49110;52.584;13.408;2023-04-03T04:01:04;2.00;99.60
14014;DHT22;49110;52.584;13.408;2023-04-03T04:02:05;2.00;99.60
14014;DHT22;49110;52.584;13.408;2023-04-03T04:03:06;2.00;99.50
14014;DHT22;49110;52.584;13.408;2023-04-03T04:04:06;1.90;99.50
14014;DHT22;49110;52.584;13.408;2023-04-03T04:05:07;1.80;99.60
14014;DHT22;49110;52.584;13.408;2023-04-03T04:06:08;1.70;99.60
14014;DHT22;49110;52.584;13.408;2023-04-03T04:07:08;1.60;99.90
14014;DHT22;49110;52.584;13.408;2023-04-03T04:08:09;1.60;99.90
14014;DHT22;49110;52.584;13.408;2023-04-03T04:09:09;1.60;99.90
14014;DHT22;49110;52.584;13.408;2023-04-03T04:10:10;1.70;99.90
14014;DHT22;49110;52.584;13.408;2023-04-03T04:11:10;1.70;99.90
14014;DHT22;49110;52.584;13.408;2023-04-03T04:12:11;1.70;99.90
14014;DHT22;49110;52.584;13.408;2023-04-03T04:13:11;1.80;99.90
14014;DHT22;49110;52.584;13.408;2023-04-03T04:14:12;1.80;99.90
14014;DHT22;49110;52.584;13.408;2023-04-03T04:15:13;1.80;99.80
14014;DHT22;49110;52.584;13.408;2023-04-03T04:16:14;1.70;99.90
14014;DHT22;49110;52.584;13.408;2023-04-03T04:17:14;1.70;99.90
14014;DHT22;49110;52.584;13.408;2023-04-03T04:18:15;1.60;99.90
14014;DHT22;49110;52.584;13.408;2023-04-03T04:19:15;1.60;99.90
14014;DHT22;49110;52.584;13.408;2023-04-03T04:20:16;1.60;99.90
14014;DHT22;49110;52.584;13.408;2023-04-03T04:21:16;1.60;99.90
14014;DHT22;49110;52.584;13.408;2023-04-03T04:22:17;1.60;99.90
14014;DHT22;49110;52.584;13.408;2023-04-03T04:23:18;1.70;99.90
14014;DHT22;49110;52.584;13.408;2023-04-03T04:24:19;1.70;99.90
14014;DHT22;49110;52.584;13.408;2023-04-03T04:25:19;1.80;99.90
14014;DHT22;49110;52.584;13.408;2023-04-03T04:26:20;1.80;99.90
14014;DHT22;49110;52.584;13.408;2023-04-03T04:27:20;1.80;99.90
14014;DHT22;49110;52.584;13.408;2023-04-03T04:28:21;1.70;99.90
14014;DHT22;49110;52.584;13.408;2023-04-03T04:29:21;1.60;99.90
14014;DHT22;49110;52.584;13.408;2023-04-03T04:30:22;1.60;99.90
14014;DHT22;49110;52.584;13.408;2023-04-03T04:31:22;1.70;99.90
14014;DHT22;49110;52.584;13.408;2023-04-03T04:32:23;1.70;99.90
14014;DHT22;49110;52.584;13.408;2023-04-03T04:33:23;1.80;99.90
14014;DHT22;49110;52.584;13.408;2023-04-03T04:34:24;1.80;99.90
14014;DHT22;49110;52.584;13.408;2023-04-03T04:35:24;1.80;99.90
14014;DHT22;49110;52.584;13.408;2023-04-03T04:36:25;1.80;99.90
14014;DHT22;49110;52.584;13.408;2023-04-03T04:37:26;1.70;99.90
14014;DHT22;49110;52.584;13.408;2023-04-03T04:38:26;1.70;99.90
14014;DHT22;49110;52.584;13.408;2023-04-03T04:39:27;1.60;99.90
14014;DHT22;49110;52.584;13.408;2023-04-03T04:40:27;1.50;99.90
14014;DHT22;49110;52.584;13.408;2023-04-03T04:41:28;1.60;99.90
14014;DHT22;49110;52.584;13.408;2023-04-03T04:42:28;1.60;99.90
14014;DHT22;49110;52.584;13.408;2023-04-03T04:43:29;1.50;99.90
14014;DHT22;49110;52.584;13.408;2023-04-03T04:44:29;1.50;99.90
14014;DHT22;49110;52.584;13.408;2023-04-03T04:45:30;1.50;99.90
14014;DHT22;49110;52.584;13.408;2023-04-03T04:46:31;1.40;99.90
14014;DHT22;49110;52.584;13.408;2023-04-03T04:47:32;1.40;99.90
14014;DHT22;49110;52.584;13.408;2023-04-03T04:48:33;1.40;99.90
14014;DHT22;49110;52.584;13.408;2023-04-03T04:49:34;1.40;99.90
14014;DHT22;49110;52.584;13.408;2023-04-03T04:50:35;1.40;99.90
14014;DHT22;49110;52.584;13.408;2023-04-03T04:51:35;1.40;99.90
14014;DHT22;49110;52.584;13.408;2023-04-03T04:52:36;1.50;99.90
14014;DHT22;49110;52.584;13.408;2023-04-03T04:53:37;1.50;99.90
14014;DHT22;49110;52.584;13.408;2023-04-03T04:54:37;1.40;99.90
14014;DHT22;49110;52.584;13.408;2023-04-03T04:55:38;1.40;99.90
14014;DHT22;49110;52.584;13.408;2023-04-03T04:56:38;1.30;99.90
14014;DHT22;49110;52.584;13.408;2023-04-03T04:57:39;1.30;99.90
14014;DHT22;49110;52.584;13.408;2023-04-03T04:58:40;1.30;99.90
14014;DHT22;49110;52.584;13.408;2023-04-03T04:59:40;1.30;99.90
14014;DHT22;49110;52.584;13.408;2023-04-03T05:00:41;1.30;99.90
14014;DHT22;49110;52.584;13.408;2023-04-03T05:01:41;1.40;99.90
14014;DHT22;49110;52.584;13.408;2023-04-03T05:02:42;1.40;99.90
14014;DHT22;49110;52.584;13.408;2023-04-03T05:03:43;1.40;99.90
14014;DHT22;49110;52.584;13.408;2023-04-03T05:04:44;1.40;99.90
14014;DHT22;49110;52.584;13.408;2023-04-03T05:05:44;1.50;99.90
14014;DHT22;49110;52.584;13.408;2023-04-03T05:06:45;1.50;99.90
14014;DHT22;49110;52.584;13.408;2023-04-03T05:07:45;1.60;99.90
14014;DHT22;49110;52.584;13.408;2023-04-03T05:08:46;1.60;99.90
14014;DHT22;49110;52.584;13.408;2023-04-03T05:09:47;1.60;99.90
14014;DHT22;49110;52.584;13.408;2023-04-03T05:10:48;1.60;99.90
14014;DHT22;49110;52.584;13.408;2023-04-03T05:11:49;1.60;99.90
14014;DHT22;49110;52.584;13.408;2023-04-03T05:12:49;1.60;99.90
14014;DHT22;49110;52.584;13.408;2023-04-03T05:13:50;1.60;99.90
14014;DHT22;49110;52.584;13.408;2023-04-03T05:14:50;1.60;99.90
14014;DHT22;49110;52.584;13.408;2023-04-03T05:15:51;1.50;99.90
14014;DHT22;49110;52.584;13.408;2023-04-03T05:16:51;1.50;99.90
14014;DHT22;49110;52.584;13.408;2023-04-03T05:17:54;1.50;99.90
14014;DHT22;49110;52.584;13.408;2023-04-03T05:18:54;1.50;99.90
14014;DHT22;49110;52.584;13.408;2023-04-03T05:19:55;1.50;99.90
14014;DHT22;49110;52.584;13.408;2023-04-03T05:20:55;1.50;99.90
14014;DHT22;49110;52.584;13.408;2023-04-03T05:21:56;1.40;99.90
14014;DHT22;49110;52.584;13.408;2023-04-03T05:22:56;1.50;99.90
14014;DHT22;49110;52.584;13.408;2023-04-03T05:23:58;1.50;99.90
14014;DHT22;49110;52.584;13.408;2023-04-03T05:24:59;1.50;99.90
14014;DHT22;49110;52.584;13.408;2023-04-03T05:26:00;1.50;99.90
14014;DHT22;49110;52.584;13.408;2023-04-03T05:27:00;1.60;99.90
14014;DHT22;49110;52.584;13.408;2023-04-03T05:28:01;1.60;99.90
14014;DHT22;49110;52.584;13.408;2023-04-03T05:29:02;1.70;99.90
14014;DHT22;49110;52.584;13.408;2023-04-03T05:30:03;1.70;99.90
14014;DHT22;49110;52.584;13.408;2023-04-03T05:31:04;1.70;99.90
14014;DHT22;49110;52.584;13.408;2023-04-03T05:32:05;1.70;99.90
14014;DHT22;49110;52.584;13.408;2023-04-03T05:33:05;1.70;99.90
14014;DHT22;49110;52.584;13.408;2023-04-03T05:34:06;1.60;99.90
14014;DHT22;49110;52.584;13.408;2023-04-03T05:35:07;1.70;99.90
14014;DHT22;49110;52.584;13.408;2023-04-03T05:36:07;1.70;99.90
14014;DHT22;49110;52.584;13.408;2023-04-03T05:37:08;1.70;99.90
14014;DHT22;49110;52.584;13.408;2023-04-03T05:38:08;1.60;99.90
14014;DHT22;49110;52.584;13.408;2023-04-03T05:39:09;1.50;99.90
14014;DHT22;49110;52.584;13.408;2023-04-03T05:40:10;1.60;99.90
14014;DHT22;49110;52.584;13.408;2023-04-03T05:41:10;1.60;99.90
14014;DHT22;49110;52.584;13.408;2023-04-03T05:42:11;1.70;99.90
14014;DHT22;49110;52.584;13.408;2023-04-03T05:43:12;1.70;99.90
14014;DHT22;49110;52.584;13.408;2023-04-03T05:44:12;1.80;99.90
14014;DHT22;49110;52.584;13.408;2023-04-03T05:45:13;1.70;99.90
14014;DHT22;49110;52.584;13.408;2023-04-03T05:46:16;1.70;99.90
14014;DHT22;49110;52.584;13.408;2023-04-03T05:47:17;1.70;99.90
14014;DHT22;49110;52.584;13.408;2023-04-03T05:48:18;1.70;99.90
14014;DHT22;49110;52.584;13.408;2023-04-03T05:49:18;1.70;99.90
14014;DHT22;49110;52.584;13.408;2023-04-03T05:50:19;1.70;99.90
14014;DHT22;49110;52.584;13.408;2023-04-03T05:51:24;1.70;99.90
14014;DHT22;49110;52.584;13.408;2023-04-03T05:52:29;1.70;99.90
14014;DHT22;49110;52.584;13.408;2023-04-03T05:53:32;1.80;99.90
14014;DHT22;49110;52.584;13.408;2023-04-03T05:54:34;1.90;99.90
14014;DHT22;49110;52.584;13.408;2023-04-03T05:55:34;1.80;99.90
14014;DHT22;49110;52.584;13.408;2023-04-03T05:56:35;1.90;99.90
14014;DHT22;49110;52.584;13.408;2023-04-03T05:57:35;1.90;99.90
14014;DHT22;49110;52.584;13.408;2023-04-03T05:58:36;1.90;99.90
14014;DHT22;49110;52.584;13.408;2023-04-03T05:59:36;2.00;99.90
14014;DHT22;49110;52.584;13.408;2023-04-03T06:00:37;2.00;99.90
14014;DHT22;49110;52.584;13.408;2023-04-03T06:01:37;2.10;99.90
14014;DHT22;49110;52.584;13.408;2023-04-03T06:02:38;2.20;99.90
14014;DHT22;49110;52.584;13.408;2023-04-03T06:03:39;2.30;99.90
14014;DHT22;49110;52.584;13.408;2023-04-03T06:04:40;2.30;99.90
14014;DHT22;49110;52.584;13.408;2023-04-03T06:05:41;2.30;99.90
14014;DHT22;49110;52.584;13.408;2023-04-03T06:06:56;2.40;99.90
14014;DHT22;49110;52.584;13.408;2023-04-03T06:07:58;2.50;99.90
14014;DHT22;49110;52.584;13.408;2023-04-03T06:08:59;2.50;99.90
14014;DHT22;49110;52.584;13.408;2023-04-03T06:09:59;2.60;99.90
14014;DHT22;49110;52.584;13.408;2023-04-03T06:11:01;2.70;99.90
14014;DHT22;49110;52.584;13.408;2023-04-03T06:12:02;2.70;99.90
14014;DHT22;49110;52.584;13.408;2023-04-03T06:13:03;2.70;99.70
14014;DHT22;49110;52.584;13.408;2023-04-03T06:14:03;2.60;99.80
14014;DHT22;49110;52.584;13.408;2023-04-03T06:15:04;2.60;99.90
14014;DHT22;49110;52.584;13.408;2023-04-03T06:16:06;2.60;99.70
14014;DHT22;49110;52.584;13.408;2023-04-03T06:17:06;2.70;99.70
14014;DHT22;49110;52.584;13.408;2023-04-03T06:18:08;2.70;99.90
14014;DHT22;49110;52.584;13.408;2023-04-03T06:19:09;2.80;99.90
14014;DHT22;49110;52.584;13.408;2023-04-03T06:20:11;2.80;99.90
14014;DHT22;49110;52.584;13.408;2023-04-03T06:21:12;2.90;99.90
14014;DHT22;49110;52.584;13.408;2023-04-03T06:22:13;2.90;99.60
14014;DHT22;49110;52.584;13.408;2023-04-03T06:23:13;2.90;99.50
14014;DHT22;49110;52.584;13.408;2023-04-03T06:24:16;2.80;99.50
14014;DHT22;49110;52.584;13.408;2023-04-03T06:25:17;2.80;99.50
14014;DHT22;49110;52.584;13.408;2023-04-03T06:26:19;2.80;99.10
14014;DHT22;49110;52.584;13.408;2023-04-03T06:27:21;2.70;98.90
14014;DHT22;49110;52.584;13.408;2023-04-03T06:28:21;2.80;99.10
14014;DHT22;49110;52.584;13.408;2023-04-03T06:29:22;2.80;99.40
14014;DHT22;49110;52.584;13.408;2023-04-03T06:30:22;2.90;99.20
14014;DHT22;49110;52.584;13.408;2023-04-03T06:31:23;2.90;98.80
14014;DHT22;49110;52.584;13.408;2023-04-03T06:32:23;2.90;98.50